createdAt,value
2023-05-09T00:01:45.264Z,101522.09
2023-05-09T00:04:11.815Z,101525.53
2023-05-09T00:06:38.375Z,101522.44
2023-05-09T00:09:05.147Z,101514.09
2023-05-09T00:11:31.639Z,101518.63
2023-05-09T00:13:58.518Z,101513.63
2023-05-09T00:16:26.344Z,101515.53
2023-05-09T00:18:52.913Z,101516.47
2023-05-09T00:21:19.565Z,101517.16
2023-05-09T00:23:46.974Z,101510.13
2023-05-09T00:26:13.411Z,101505.63
2023-05-09T00:28:39.854Z,101501.00
2023-05-09T00:31:06.813Z,101501.13
2023-05-09T00:33:33.286Z,101475.84
2023-05-09T00:35:59.833Z,101500.81
2023-05-09T00:38:26.390Z,101500.69
2023-05-09T00:40:52.842Z,101501.06
2023-05-09T00:43:19.276Z,101510.38
2023-05-09T00:45:45.967Z,101492.25
2023-05-09T00:48:12.668Z,101502.84
2023-05-09T00:50:39.249Z,101501.34
2023-05-09T00:53:05.962Z,101500.88
2023-05-09T00:55:32.463Z,101501.22
2023-05-09T00:57:59.047Z,101500.94
2023-05-09T01:00:25.867Z,101504.09
2023-05-09T01:02:54.971Z,101504.22
2023-05-09T01:05:23.075Z,101499.38
2023-05-09T01:08:10.728Z,101496.34
2023-05-09T01:10:44.111Z,101506.94
2023-05-09T01:13:23.641Z,101496.75
2023-05-09T01:15:58.145Z,101493.81
2023-05-09T01:18:36.294Z,101497.66
2023-05-09T01:21:08.916Z,101499.66
2023-05-09T01:23:47.290Z,101492.97
2023-05-09T01:26:32.090Z,101494.22
2023-05-09T01:29:17.937Z,101494.63
2023-05-09T01:31:45.456Z,101499.91
2023-05-09T01:34:13.002Z,101493.94
2023-05-09T01:36:42.557Z,101489.94
2023-05-09T01:39:12.607Z,101499.91
2023-05-09T01:41:39.135Z,101487.97
2023-05-09T01:44:08.493Z,101496.03
2023-05-09T01:46:36.125Z,101494.97
2023-05-09T01:49:03.296Z,101497.22
2023-05-09T01:51:31.651Z,101497.56
2023-05-09T01:53:59.328Z,101497.91
2023-05-09T01:56:26.407Z,101488.13
2023-05-09T01:58:53.883Z,101490.31
2023-05-09T02:01:21.107Z,101485.34
2023-05-09T02:03:50.736Z,101492.38
2023-05-09T02:06:17.474Z,101488.63
2023-05-09T02:08:44.109Z,101484.59
2023-05-09T02:11:10.589Z,101484.06
2023-05-09T02:13:38.403Z,101491.59
2023-05-09T02:16:08.329Z,101483.13
2023-05-09T02:18:35.453Z,101484.56
2023-05-09T02:21:02.619Z,101485.09
2023-05-09T02:23:29.401Z,101484.81
2023-05-09T02:25:56.035Z,101484.50
2023-05-09T02:28:23.222Z,101483.03
2023-05-09T02:30:50.562Z,101491.66
2023-05-09T02:33:17.216Z,101493.22
2023-05-09T02:35:46.434Z,101484.31
2023-05-09T02:38:15.371Z,101480.47
2023-05-09T02:40:43.469Z,101481.06
2023-05-09T02:43:10.468Z,101492.66
2023-05-09T02:45:37.163Z,101495.19
2023-05-09T02:48:05.150Z,101484.25
2023-05-09T02:50:33.428Z,101492.19
2023-05-09T02:52:59.880Z,101491.25
2023-05-09T02:55:26.713Z,101480.41
2023-05-09T02:58:05.377Z,101479.44
2023-05-09T03:00:39.074Z,101492.66
2023-05-09T03:03:05.817Z,101486.38
2023-05-09T03:05:32.428Z,101486.56
2023-05-09T03:07:58.903Z,101490.09
2023-05-09T03:10:25.398Z,101489.84
2023-05-09T03:12:51.906Z,101496.81
2023-05-09T03:15:18.467Z,101491.75
2023-05-09T03:17:45.069Z,101492.59
2023-05-09T03:20:11.641Z,101490.16
2023-05-09T03:22:38.275Z,101487.34
2023-05-09T03:25:05.098Z,101497.38
2023-05-09T03:27:31.600Z,101493.28
2023-05-09T03:29:58.066Z,101488.66
2023-05-09T03:32:24.675Z,101491.25
2023-05-09T03:34:51.145Z,101488.31
2023-05-09T03:37:17.844Z,101490.03
2023-05-09T03:39:44.350Z,101489.94
2023-05-09T03:42:10.864Z,101496.53
2023-05-09T03:44:37.376Z,101501.09
2023-05-09T03:47:03.998Z,101501.81
2023-05-09T03:49:30.669Z,101494.00
2023-05-09T03:51:57.143Z,101498.78
2023-05-09T03:54:23.611Z,101495.66
2023-05-09T03:56:50.209Z,101499.19
2023-05-09T03:59:16.727Z,101492.41
2023-05-09T04:01:43.299Z,101494.00
2023-05-09T04:04:09.810Z,101496.03
2023-05-09T04:06:36.393Z,101499.41
2023-05-09T04:09:02.933Z,101484.47
2023-05-09T04:11:29.440Z,101488.03
2023-05-09T04:13:55.978Z,101491.78
2023-05-09T04:16:22.603Z,101491.72
2023-05-09T04:18:49.110Z,101485.75
2023-05-09T04:21:15.729Z,101481.13
2023-05-09T04:23:43.649Z,101486.41
2023-05-09T04:26:12.234Z,101495.81
2023-05-09T04:28:38.967Z,101506.72
2023-05-09T04:31:06.563Z,101493.25
2023-05-09T04:33:33.112Z,101493.78
2023-05-09T04:35:59.636Z,101498.25
2023-05-09T04:38:26.182Z,101498.72
2023-05-09T04:40:52.703Z,101495.94
2023-05-09T04:43:19.261Z,101496.72
2023-05-09T04:45:46.533Z,101497.38
2023-05-09T04:48:13.083Z,101507.34
2023-05-09T04:50:41.470Z,101502.41
2023-05-09T04:53:08.365Z,101507.22
2023-05-09T04:55:35.722Z,101493.31
2023-05-09T04:58:02.228Z,101488.91
2023-05-09T05:00:28.952Z,101499.28
2023-05-09T05:02:55.558Z,101497.66
2023-05-09T05:05:25.105Z,101499.81
2023-05-09T05:07:53.447Z,101499.75
2023-05-09T05:10:19.907Z,101499.44
2023-05-09T05:12:46.508Z,101498.22
2023-05-09T05:15:13.329Z,101496.50
2023-05-09T05:17:39.973Z,101499.19
2023-05-09T05:20:08.334Z,101496.34
2023-05-09T05:22:35.780Z,101498.69
2023-05-09T05:25:03.751Z,101489.66
2023-05-09T05:27:30.674Z,101491.69
2023-05-09T05:29:57.147Z,101495.09
2023-05-09T05:32:23.635Z,101501.66
2023-05-09T05:34:50.155Z,101497.44
2023-05-09T05:37:16.956Z,101500.78
2023-05-09T05:39:43.447Z,101490.09
2023-05-09T05:42:10.033Z,101493.06
2023-05-09T05:44:36.588Z,101488.13
2023-05-09T05:47:03.286Z,101487.91
2023-05-09T05:49:29.793Z,101489.28
2023-05-09T05:51:56.431Z,101482.53
2023-05-09T05:54:22.946Z,101487.00
2023-05-09T05:56:49.652Z,101482.88
2023-05-09T05:59:16.313Z,101486.13
2023-05-09T06:01:43.211Z,101488.25
2023-05-09T06:04:10.046Z,101484.19
2023-05-09T06:06:36.736Z,101477.56
2023-05-09T06:09:03.304Z,101469.50
2023-05-09T06:11:29.908Z,101480.19
2023-05-09T06:13:56.512Z,101476.38
2023-05-09T06:16:23.078Z,101485.09
2023-05-09T06:18:49.740Z,101483.69
2023-05-09T06:21:16.396Z,101477.63
2023-05-09T06:23:57.808Z,101479.16
2023-05-09T06:26:29.854Z,101479.66
2023-05-09T06:28:56.495Z,101485.31
2023-05-09T06:31:25.407Z,101473.94
2023-05-09T06:33:52.578Z,101475.88
2023-05-09T06:36:19.042Z,101463.44
2023-05-09T06:38:45.632Z,101481.47
2023-05-09T06:41:12.080Z,101478.91
2023-05-09T06:43:38.679Z,101479.28
2023-05-09T06:46:05.252Z,101477.03
2023-05-09T06:48:31.855Z,101480.13
2023-05-09T06:50:58.295Z,101476.44
2023-05-09T06:53:24.797Z,101474.16
2023-05-09T06:55:51.342Z,101472.13
2023-05-09T06:58:17.817Z,101470.69
2023-05-09T07:00:44.278Z,101467.50
2023-05-09T07:03:11.714Z,101451.53
2023-05-09T07:05:38.357Z,101472.56
2023-05-09T07:08:05.008Z,101465.63
2023-05-09T07:10:31.838Z,101461.69
2023-05-09T07:12:58.590Z,101462.19
2023-05-09T07:15:39.598Z,101466.34
2023-05-09T07:18:08.570Z,101459.63
2023-05-09T07:20:35.257Z,101454.78
2023-05-09T07:23:04.028Z,101457.94
2023-05-09T07:25:30.788Z,101450.69
2023-05-09T07:27:58.629Z,101456.50
2023-05-09T07:30:25.427Z,101447.66
2023-05-09T07:32:52.300Z,101444.47
2023-05-09T07:35:19.720Z,101436.53
2023-05-09T07:37:46.525Z,101444.19
2023-05-09T07:40:13.699Z,101441.47
2023-05-09T07:42:40.970Z,101438.63
2023-05-09T07:45:07.831Z,101442.06
2023-05-09T07:47:34.790Z,101437.91
2023-05-09T07:50:01.406Z,101439.34
2023-05-09T07:52:28.012Z,101434.50
2023-05-09T07:54:54.661Z,101435.53
2023-05-09T07:57:21.227Z,101432.28
2023-05-09T07:59:47.740Z,101431.00
2023-05-09T08:02:14.306Z,101422.13
2023-05-09T08:04:41.731Z,101426.91
2023-05-09T08:07:09.112Z,101421.31
2023-05-09T08:09:35.909Z,101419.25
2023-05-09T08:12:02.538Z,101413.13
2023-05-09T08:14:29.744Z,101414.63
2023-05-09T08:16:56.336Z,101417.38
2023-05-09T08:19:26.045Z,101404.88
2023-05-09T08:21:53.092Z,101401.63
2023-05-09T08:24:20.198Z,101410.53
2023-05-09T08:26:46.941Z,101401.28
2023-05-09T08:29:13.475Z,101400.97
2023-05-09T08:31:40.112Z,101395.47
2023-05-09T08:34:06.650Z,101392.91
2023-05-09T08:36:33.853Z,101397.84
2023-05-09T08:39:00.398Z,101392.91
2023-05-09T08:41:30.139Z,101388.28
2023-05-09T08:43:56.760Z,101393.25
2023-05-09T08:46:34.506Z,101390.47
2023-05-09T08:49:01.600Z,101394.16
2023-05-09T08:51:30.099Z,101373.72
2023-05-09T08:53:56.831Z,101381.03
2023-05-09T08:56:23.777Z,101370.97
2023-05-09T08:58:50.325Z,101369.78
2023-05-09T09:01:17.605Z,101369.81
2023-05-09T09:03:47.722Z,101364.94
2023-05-09T09:06:14.434Z,101370.06
2023-05-09T09:08:42.035Z,101368.63
2023-05-09T09:11:12.358Z,101366.19
2023-05-09T09:13:40.928Z,101363.09
2023-05-09T09:16:16.541Z,101366.34
2023-05-09T09:18:43.627Z,101369.03
2023-05-09T09:21:12.492Z,101367.66
2023-05-09T09:23:43.226Z,101370.81
2023-05-09T09:26:10.024Z,101362.38
2023-05-09T09:28:36.557Z,101359.28
2023-05-09T09:31:22.083Z,101361.00
2023-05-09T09:33:48.866Z,101360.84
2023-05-09T09:36:15.532Z,101357.00
2023-05-09T09:38:46.268Z,101361.16
2023-05-09T09:41:13.348Z,101350.44
2023-05-09T09:43:45.747Z,101349.97
2023-05-09T09:46:14.006Z,101343.56
2023-05-09T09:48:40.528Z,101333.47
2023-05-09T09:51:11.200Z,101322.69
2023-05-09T09:53:41.976Z,101335.47
2023-05-09T09:56:09.105Z,101336.69
2023-05-09T09:58:35.838Z,101341.91
2023-05-09T10:01:16.551Z,101340.50
2023-05-09T10:03:47.935Z,101336.03
2023-05-09T10:06:16.020Z,101330.69
2023-05-09T10:08:47.211Z,101331.31
2023-05-09T10:11:14.023Z,101315.41
2023-05-09T10:13:40.624Z,101315.84
2023-05-09T10:16:09.548Z,101314.00
2023-05-09T10:18:36.348Z,101321.22
2023-05-09T10:21:05.065Z,101312.03
2023-05-09T10:23:33.355Z,101310.25
2023-05-09T10:26:19.947Z,101309.63
2023-05-09T10:28:49.036Z,101301.63
2023-05-09T10:31:29.237Z,101296.47
2023-05-09T10:33:56.385Z,101308.06
2023-05-09T10:36:23.979Z,101313.81
2023-05-09T10:38:53.804Z,101302.72
2023-05-09T10:41:21.988Z,101298.41
2023-05-09T10:43:48.796Z,101299.28
2023-05-09T10:46:15.987Z,101304.50
2023-05-09T10:48:43.161Z,101295.09
2023-05-09T10:51:10.355Z,101294.31
2023-05-09T10:53:50.111Z,101291.59
2023-05-09T10:56:30.162Z,101297.22
2023-05-09T10:58:57.414Z,101288.88
2023-05-09T11:01:38.898Z,101291.50
2023-05-09T11:04:17.016Z,101294.72
2023-05-09T11:06:43.937Z,101283.38
2023-05-09T11:09:27.120Z,101274.88
2023-05-09T11:11:56.566Z,101259.84
2023-05-09T11:14:51.603Z,101264.91
2023-05-09T11:17:20.916Z,101253.13
2023-05-09T11:19:47.454Z,101263.28
2023-05-09T11:22:21.156Z,101250.66
2023-05-09T11:24:50.018Z,101252.38
2023-05-09T11:27:24.094Z,101253.75
2023-05-09T11:29:52.001Z,101247.44
2023-05-09T11:32:19.324Z,101237.75
2023-05-09T11:34:46.149Z,101232.63
2023-05-09T11:37:15.391Z,101225.63
2023-05-09T11:40:03.019Z,101237.47
2023-05-09T11:42:29.835Z,101229.63
2023-05-09T11:44:57.478Z,101217.00
2023-05-09T11:47:24.636Z,101212.34
2023-05-09T11:49:51.807Z,101195.81
2023-05-09T11:52:21.896Z,101201.97
2023-05-09T11:54:49.567Z,101193.59
2023-05-09T11:57:19.238Z,101205.56
2023-05-09T11:59:45.853Z,101200.78
2023-05-09T12:02:13.149Z,101190.00
2023-05-09T12:04:40.042Z,101194.44
2023-05-09T12:07:06.837Z,101195.66
2023-05-09T12:09:34.483Z,101191.41
2023-05-09T12:12:01.281Z,101185.25
2023-05-09T12:14:29.633Z,101180.28
2023-05-09T12:16:56.241Z,101168.66
2023-05-09T12:19:24.540Z,101182.34
2023-05-09T12:22:01.296Z,101170.69
2023-05-09T12:24:29.077Z,101172.56
2023-05-09T12:26:57.082Z,101169.53
2023-05-09T12:29:24.970Z,101173.28
2023-05-09T12:31:53.472Z,101166.44
2023-05-09T12:34:20.398Z,101160.47
2023-05-09T12:36:53.760Z,101153.28
2023-05-09T12:39:24.476Z,101156.00
2023-05-09T12:42:01.177Z,101145.59
2023-05-09T12:44:29.627Z,101150.00
2023-05-09T12:47:03.749Z,101137.19
2023-05-09T12:49:31.498Z,101126.91
2023-05-09T12:52:01.093Z,101133.19
2023-05-09T12:54:29.736Z,101136.66
2023-05-09T12:56:57.320Z,101135.53
2023-05-09T12:59:28.335Z,101128.16
2023-05-09T13:01:59.547Z,101124.69
2023-05-09T13:04:28.014Z,101115.34
2023-05-09T13:06:56.077Z,101111.56
2023-05-09T13:09:26.196Z,101107.88
2023-05-09T13:11:53.145Z,101117.28
2023-05-09T13:14:23.100Z,101117.09
2023-05-09T13:16:49.618Z,101106.72
2023-05-09T13:19:16.844Z,101113.69
2023-05-09T13:21:43.397Z,101098.44
2023-05-09T13:24:09.987Z,101103.34
2023-05-09T13:26:36.684Z,101094.13
2023-05-09T13:29:03.441Z,101093.91
2023-05-09T13:31:30.827Z,101093.63
2023-05-09T13:33:57.325Z,101090.09
2023-05-09T13:36:23.983Z,101083.13
2023-05-09T13:38:50.566Z,101075.91
2023-05-09T13:41:20.839Z,101075.50
2023-05-09T13:43:47.745Z,101081.78
2023-05-09T13:46:14.506Z,101078.91
2023-05-09T13:48:41.916Z,101081.63
2023-05-09T13:51:08.804Z,101078.50
2023-05-09T13:53:37.395Z,101074.44
2023-05-09T13:56:09.694Z,101072.72
2023-05-09T13:58:36.456Z,101069.50
2023-05-09T14:01:03.232Z,101072.91
2023-05-09T14:03:29.938Z,101063.13
2023-05-09T14:05:56.532Z,101054.81
2023-05-09T14:08:23.227Z,101045.53
2023-05-09T14:10:49.782Z,101037.31
2023-05-09T14:13:16.311Z,101050.91
2023-05-09T14:15:42.995Z,101037.88
2023-05-09T14:18:09.839Z,101047.31
2023-05-09T14:20:37.763Z,101040.25
2023-05-09T14:23:04.558Z,101033.34
2023-05-09T14:25:31.664Z,101032.34
2023-05-09T14:27:59.543Z,101034.47
2023-05-09T14:30:26.675Z,101026.81
2023-05-09T14:32:53.346Z,101030.69
2023-05-09T14:35:19.970Z,101029.72
2023-05-09T14:37:46.533Z,101024.63
2023-05-09T14:40:13.359Z,101025.91
2023-05-09T14:42:40.655Z,101022.16
2023-05-09T14:45:10.524Z,101035.88
2023-05-09T14:47:37.227Z,101032.34
2023-05-09T14:50:04.491Z,101027.94
2023-05-09T14:52:31.044Z,101020.25
2023-05-09T14:54:59.642Z,101024.94
2023-05-09T14:57:26.468Z,101018.53
2023-05-09T14:59:53.154Z,101011.53
2023-05-09T15:02:19.852Z,101004.41
2023-05-09T15:04:46.409Z,101020.41
2023-05-09T15:07:13.379Z,101006.28
2023-05-09T15:09:40.167Z,101003.72
2023-05-09T15:12:06.930Z,100997.25
2023-05-09T15:14:33.524Z,101001.78
2023-05-09T15:17:03.646Z,101002.75
2023-05-09T15:19:31.694Z,100990.66
2023-05-09T15:21:59.154Z,100983.78
2023-05-09T15:24:26.146Z,100995.66
2023-05-09T15:26:53.637Z,100987.72
2023-05-09T15:29:21.679Z,100980.16
2023-05-09T15:31:48.856Z,100983.56
2023-05-09T15:34:15.616Z,100975.03
2023-05-09T15:36:42.164Z,100972.50
2023-05-09T15:39:08.795Z,100976.63
2023-05-09T15:41:35.437Z,100967.94
2023-05-09T15:44:01.976Z,100965.53
2023-05-09T15:46:29.690Z,100971.84
2023-05-09T15:48:57.354Z,100965.00
2023-05-09T15:51:24.639Z,100969.31
2023-05-09T15:53:51.274Z,100964.75
2023-05-09T15:56:17.886Z,100963.06
2023-05-09T15:58:44.453Z,100962.03
2023-05-09T16:01:13.045Z,100957.84
2023-05-09T16:03:39.925Z,100955.53
2023-05-09T16:06:07.149Z,100952.16
2023-05-09T16:08:33.699Z,100943.78
2023-05-09T16:11:01.866Z,100943.59
2023-05-09T16:13:29.812Z,100934.13
2023-05-09T16:15:56.906Z,100934.88
2023-05-09T16:18:23.608Z,100940.19
2023-05-09T16:20:50.515Z,100941.41
2023-05-09T16:23:17.510Z,100932.00
2023-05-09T16:25:44.979Z,100939.34
2023-05-09T16:28:11.594Z,100925.88
2023-05-09T16:30:38.067Z,100928.97
2023-05-09T16:33:05.783Z,100931.72
2023-05-09T16:35:32.248Z,100929.69
2023-05-09T16:37:58.771Z,100916.31
2023-05-09T16:40:25.360Z,100919.13
2023-05-09T16:42:53.279Z,100912.50
2023-05-09T16:45:19.754Z,100913.03
2023-05-09T16:47:46.219Z,100911.84
2023-05-09T16:50:12.981Z,100916.44
2023-05-09T16:52:39.519Z,100909.59
2023-05-09T16:55:06.460Z,100916.34
2023-05-09T16:57:33.348Z,100909.59
2023-05-09T16:59:59.861Z,100908.16
2023-05-09T17:02:26.475Z,100902.09
2023-05-09T17:04:53.085Z,100900.56
2023-05-09T17:07:20.050Z,100905.66
2023-05-09T17:09:48.335Z,100900.34
2023-05-09T17:12:18.036Z,100903.25
2023-05-09T17:14:45.570Z,100895.91
2023-05-09T17:17:13.038Z,100897.28
2023-05-09T17:19:39.615Z,100896.94
2023-05-09T17:22:07.792Z,100894.38
2023-05-09T17:24:34.417Z,100898.25
2023-05-09T17:27:00.951Z,100886.69
2023-05-09T17:29:29.199Z,100898.97
2023-05-09T17:32:00.725Z,100893.97
2023-05-09T17:34:28.255Z,100890.56
2023-05-09T17:36:54.765Z,100898.00
2023-05-09T17:39:22.049Z,100890.28
2023-05-09T17:41:48.512Z,100892.53
2023-05-09T17:44:15.591Z,100894.75
2023-05-09T17:46:42.384Z,100898.50
2023-05-09T17:49:10.896Z,100895.41
2023-05-09T17:51:37.434Z,100895.91
2023-05-09T17:54:05.410Z,100897.72
2023-05-09T17:56:31.972Z,100892.47
2023-05-09T17:59:01.555Z,100901.28
2023-05-09T18:01:28.545Z,100890.34
2023-05-09T18:03:55.168Z,100896.44
2023-05-09T18:06:21.662Z,100899.09
2023-05-09T18:08:48.420Z,100906.03
2023-05-09T18:11:15.180Z,100899.44
2023-05-09T18:13:41.690Z,100892.75
2023-05-09T18:16:08.448Z,100893.53
2023-05-09T18:18:36.437Z,100896.38
2023-05-09T18:21:04.925Z,100899.56
2023-05-09T18:23:31.546Z,100894.59
2023-05-09T18:25:58.337Z,100901.66
2023-05-09T18:28:25.971Z,100899.75
2023-05-09T18:30:56.612Z,100902.56
2023-05-09T18:33:24.191Z,100898.44
2023-05-09T18:35:51.027Z,100907.91
2023-05-09T18:38:17.532Z,100902.78
2023-05-09T18:40:44.050Z,100903.94
2023-05-09T18:43:10.796Z,100905.84
2023-05-09T18:45:37.594Z,100908.88
2023-05-09T18:48:04.695Z,100908.97
2023-05-09T18:50:31.469Z,100911.41
2023-05-09T18:52:58.686Z,100909.16
2023-05-09T18:55:25.190Z,100910.72
2023-05-09T18:57:51.918Z,100904.03
2023-05-09T19:00:18.477Z,100913.19
2023-05-09T19:02:44.976Z,100909.22
2023-05-09T19:05:11.583Z,100908.97
2023-05-09T19:07:38.715Z,100909.56
2023-05-09T19:10:08.177Z,100914.22
2023-05-09T19:12:37.802Z,100912.06
2023-05-09T19:15:05.390Z,100909.91
2023-05-09T19:17:31.914Z,100906.53
2023-05-09T19:19:58.597Z,100900.53
2023-05-09T19:22:25.446Z,100897.38
2023-05-09T19:24:52.049Z,100899.44
2023-05-09T19:27:19.077Z,100900.19
2023-05-09T19:29:46.909Z,100906.03
2023-05-09T19:32:14.557Z,100906.34
2023-05-09T19:34:41.033Z,100905.22
2023-05-09T19:37:07.628Z,100902.22
2023-05-09T19:39:34.202Z,100902.38
2023-05-09T19:42:00.933Z,100895.69
2023-05-09T19:44:27.673Z,100897.13
2023-05-09T19:46:57.424Z,100891.66
2023-05-09T19:49:24.093Z,100895.72
2023-05-09T19:51:50.648Z,100894.84
2023-05-09T19:54:17.686Z,100899.72
2023-05-09T19:56:44.223Z,100892.16
2023-05-09T19:59:10.725Z,100895.47
2023-05-09T20:01:37.947Z,100894.59
2023-05-09T20:04:04.616Z,100895.56
2023-05-09T20:06:31.384Z,100893.88
2023-05-09T20:08:57.980Z,100899.44
2023-05-09T20:11:24.527Z,100887.03
2023-05-09T20:13:51.760Z,100894.75
2023-05-09T20:16:19.837Z,100893.03
2023-05-09T20:18:46.364Z,100884.59
2023-05-09T20:21:13.390Z,100890.03
2023-05-09T20:23:39.890Z,100890.19
2023-05-09T20:26:06.515Z,100894.72
2023-05-09T20:28:33.288Z,100901.72
2023-05-09T20:30:59.698Z,100894.88
2023-05-09T20:33:26.171Z,100893.91
2023-05-09T20:35:52.548Z,100897.31
2023-05-09T20:38:19.551Z,100891.03
2023-05-09T20:40:45.965Z,100889.75
2023-05-09T20:43:12.464Z,100890.72
2023-05-09T20:45:39.167Z,100885.47
2023-05-09T20:48:06.575Z,100885.63
2023-05-09T20:50:33.041Z,100892.44
2023-05-09T20:52:59.527Z,100889.00
2023-05-09T20:55:25.936Z,100891.88
2023-05-09T20:57:52.439Z,100892.28
2023-05-09T21:00:19.102Z,100888.28
2023-05-09T21:02:45.826Z,100891.13
2023-05-09T21:05:12.283Z,100885.88
2023-05-09T21:07:38.701Z,100882.59
2023-05-09T21:10:05.818Z,100877.84
2023-05-09T21:12:32.720Z,100879.41
2023-05-09T21:14:59.115Z,100884.72
2023-05-09T21:17:25.663Z,100884.41
2023-05-09T21:19:52.233Z,100882.84
2023-05-09T21:22:18.671Z,100884.09
2023-05-09T21:24:45.295Z,100880.53
2023-05-09T21:27:11.698Z,100882.25
2023-05-09T21:29:38.103Z,100875.78
2023-05-09T21:32:04.671Z,100873.22
2023-05-09T21:34:31.160Z,100874.28
2023-05-09T21:36:57.589Z,100871.09
2023-05-09T21:39:24.026Z,100873.38
2023-05-09T21:41:50.556Z,100867.97
2023-05-09T21:44:17.117Z,100875.53
2023-05-09T21:46:46.130Z,100875.69
2023-05-09T21:49:12.956Z,100878.97
2023-05-09T21:51:39.370Z,100880.09
2023-05-09T21:54:06.229Z,100869.22
2023-05-09T21:56:32.634Z,100875.19
2023-05-09T21:58:59.058Z,100877.06
2023-05-09T22:01:25.476Z,100883.59
2023-05-09T22:03:52.162Z,100878.00
2023-05-09T22:06:18.769Z,100881.72
2023-05-09T22:08:45.326Z,100879.72
2023-05-09T22:11:14.201Z,100876.44
2023-05-09T22:13:41.256Z,100880.13
2023-05-09T22:16:07.840Z,100881.84
2023-05-09T22:18:34.269Z,100883.09
2023-05-09T22:21:00.850Z,100885.22
2023-05-09T22:23:27.326Z,100876.06
2023-05-09T22:25:53.742Z,100879.00
2023-05-09T22:28:20.301Z,100870.59
2023-05-09T22:30:47.004Z,100876.44
2023-05-09T22:33:13.694Z,100871.88
2023-05-09T22:35:40.182Z,100872.28
2023-05-09T22:38:06.634Z,100862.00
2023-05-09T22:40:33.893Z,100866.72
2023-05-09T22:43:00.329Z,100856.88
2023-05-09T22:45:26.793Z,100858.13
2023-05-09T22:47:53.277Z,100853.84
2023-05-09T22:50:19.733Z,100856.09
2023-05-09T22:52:46.213Z,100857.34
2023-05-09T22:55:12.705Z,100856.66
2023-05-09T22:57:40.033Z,100857.75
2023-05-09T23:00:07.166Z,100858.34
2023-05-09T23:02:33.704Z,100855.31
2023-05-09T23:05:00.194Z,100858.56
2023-05-09T23:07:26.630Z,100856.84
2023-05-09T23:09:53.123Z,100850.09
2023-05-09T23:12:19.640Z,100859.59
2023-05-09T23:14:46.659Z,100856.06
2023-05-09T23:17:13.175Z,100849.31
2023-05-09T23:19:39.685Z,100850.69
2023-05-09T23:22:06.210Z,100858.81
2023-05-09T23:24:32.740Z,100852.31
2023-05-09T23:26:59.160Z,100857.81
2023-05-09T23:29:25.666Z,100845.69
2023-05-09T23:31:52.118Z,100854.22
2023-05-09T23:34:18.607Z,100851.59
2023-05-09T23:36:45.217Z,100855.72
2023-05-09T23:39:12.082Z,100844.41
2023-05-09T23:41:38.543Z,100844.81
2023-05-09T23:44:06.155Z,100844.09
2023-05-09T23:46:32.638Z,100836.84
2023-05-09T23:48:59.136Z,100838.81
2023-05-09T23:51:26.111Z,100831.81
2023-05-09T23:53:52.551Z,100835.50
2023-05-09T23:56:19.018Z,100837.00
2023-05-09T23:58:45.578Z,100828.44
